sensor_id;sensor_type;location;lat;lon;timestamp;temperature;humidity
5808;DHT22;2930;42.678;23.312;2023-07-09T00:01:35;18.60;77.50
5808;DHT22;2930;42.678;23.312;2023-07-09T00:04:02;18.60;77.60
5808;DHT22;2930;42.678;23.312;2023-07-09T00:06:28;18.60;77.60
5808;DHT22;2930;42.678;23.312;2023-07-09T00:08:54;18.60;77.60
5808;DHT22;2930;42.678;23.312;2023-07-09T00:11:19;18.60;77.90
5808;DHT22;2930;42.678;23.312;2023-07-09T00:13:45;18.60;77.30
5808;DHT22;2930;42.678;23.312;2023-07-09T00:16:17;18.60;77.30
5808;DHT22;2930;42.678;23.312;2023-07-09T00:18:44;18.70;76.90
5808;DHT22;2930;42.678;23.312;2023-07-09T00:21:09;18.70;76.90
5808;DHT22;2930;42.678;23.312;2023-07-09T00:23:35;18.80;76.30
5808;DHT22;2930;42.678;23.312;2023-07-09T00:26:08;18.80;76.10
5808;DHT22;2930;42.678;23.312;2023-07-09T00:28:35;18.90;75.90
5808;DHT22;2930;42.678;23.312;2023-07-09T00:31:01;18.90;75.90
5808;DHT22;2930;42.678;23.312;2023-07-09T00:35:57;18.90;76.10
5808;DHT22;2930;42.678;23.312;2023-07-09T00:38:23;18.90;75.80
5808;DHT22;2930;42.678;23.312;2023-07-09T00:41:13;18.80;76.00
5808;DHT22;2930;42.678;23.312;2023-07-09T00:43:43;18.80;75.50
5808;DHT22;2930;42.678;23.312;2023-07-09T00:51:23;19.00;75.00
5808;DHT22;2930;42.678;23.312;2023-07-09T00:53:52;19.00;74.90
5808;DHT22;2930;42.678;23.312;2023-07-09T00:56:32;19.00;74.90
5808;DHT22;2930;42.678;23.312;2023-07-09T00:59:01;19.00;74.90
5808;DHT22;2930;42.678;23.312;2023-07-09T01:01:30;19.00;75.00
5808;DHT22;2930;42.678;23.312;2023-07-09T01:03:58;19.00;74.90
5808;DHT22;2930;42.678;23.312;2023-07-09T01:06:33;19.00;74.90
5808;DHT22;2930;42.678;23.312;2023-07-09T01:09:01;18.90;74.80
5808;DHT22;2930;42.678;23.312;2023-07-09T01:11:27;19.00;74.70
5808;DHT22;2930;42.678;23.312;2023-07-09T01:13:59;19.00;74.70
5808;DHT22;2930;42.678;23.312;2023-07-09T01:16:30;19.00;74.70
5808;DHT22;2930;42.678;23.312;2023-07-09T01:18:57;19.00;74.60
5808;DHT22;2930;42.678;23.312;2023-07-09T01:21:23;19.00;74.60
5808;DHT22;2930;42.678;23.312;2023-07-09T01:23:50;19.00;74.60
5808;DHT22;2930;42.678;23.312;2023-07-09T01:26:19;19.00;74.70
5808;DHT22;2930;42.678;23.312;2023-07-09T01:28:46;19.00;74.70
5808;DHT22;2930;42.678;23.312;2023-07-09T01:31:13;19.00;74.70
5808;DHT22;2930;42.678;23.312;2023-07-09T01:33:41;18.90;75.00
5808;DHT22;2930;42.678;23.312;2023-07-09T01:36:11;18.70;75.40
5808;DHT22;2930;42.678;23.312;2023-07-09T01:38:40;18.60;75.60
5808;DHT22;2930;42.678;23.312;2023-07-09T01:41:06;18.60;75.70
5808;DHT22;2930;42.678;23.312;2023-07-09T01:43:34;18.60;75.50
5808;DHT22;2930;42.678;23.312;2023-07-09T01:46:00;18.60;75.70
5808;DHT22;2930;42.678;23.312;2023-07-09T01:48:26;18.60;75.80
5808;DHT22;2930;42.678;23.312;2023-07-09T01:50:53;18.60;75.70
5808;DHT22;2930;42.678;23.312;2023-07-09T01:53:22;18.50;75.90
5808;DHT22;2930;42.678;23.312;2023-07-09T01:55:52;18.50;76.10
5808;DHT22;2930;42.678;23.312;2023-07-09T01:58:20;18.50;76.10
5808;DHT22;2930;42.678;23.312;2023-07-09T02:00:50;18.40;76.60
5808;DHT22;2930;42.678;23.312;2023-07-09T02:03:16;18.20;76.80
5808;DHT22;2930;42.678;23.312;2023-07-09T02:05:43;18.20;76.90
5808;DHT22;2930;42.678;23.312;2023-07-09T02:08:09;18.20;77.00
5808;DHT22;2930;42.678;23.312;2023-07-09T02:13:00;18.20;77.40
5808;DHT22;2930;42.678;23.312;2023-07-09T02:15:26;18.10;77.40
5808;DHT22;2930;42.678;23.312;2023-07-09T02:17:52;18.00;77.70
5808;DHT22;2930;42.678;23.312;2023-07-09T02:20:18;17.90;78.00
5808;DHT22;2930;42.678;23.312;2023-07-09T02:22:45;17.80;78.20
5808;DHT22;2930;42.678;23.312;2023-07-09T02:25:10;17.80;78.30
5808;DHT22;2930;42.678;23.312;2023-07-09T02:27:37;17.70;78.60
5808;DHT22;2930;42.678;23.312;2023-07-09T02:30:04;17.70;78.80
5808;DHT22;2930;42.678;23.312;2023-07-09T02:32:30;17.70;78.90
5808;DHT22;2930;42.678;23.312;2023-07-09T02:34:56;17.60;79.10
5808;DHT22;2930;42.678;23.312;2023-07-09T02:37:24;17.60;79.20
5808;DHT22;2930;42.678;23.312;2023-07-09T02:39:50;17.50;79.20
5808;DHT22;2930;42.678;23.312;2023-07-09T02:42:17;17.50;79.50
5808;DHT22;2930;42.678;23.312;2023-07-09T02:44:44;17.50;79.30
5808;DHT22;2930;42.678;23.312;2023-07-09T02:47:10;17.50;79.70
5808;DHT22;2930;42.678;23.312;2023-07-09T02:49:36;17.50;79.50
5808;DHT22;2930;42.678;23.312;2023-07-09T02:52:02;17.50;79.50
5808;DHT22;2930;42.678;23.312;2023-07-09T02:54:28;17.40;79.60
5808;DHT22;2930;42.678;23.312;2023-07-09T02:59:20;17.40;80.10
5808;DHT22;2930;42.678;23.312;2023-07-09T03:01:46;17.40;79.80
5808;DHT22;2930;42.678;23.312;2023-07-09T03:04:13;17.40;80.00
5808;DHT22;2930;42.678;23.312;2023-07-09T03:06:39;17.50;79.50
5808;DHT22;2930;42.678;23.312;2023-07-09T03:09:06;17.50;79.70
5808;DHT22;2930;42.678;23.312;2023-07-09T03:11:33;17.40;79.60
5808;DHT22;2930;42.678;23.312;2023-07-09T03:14:00;17.50;79.60
5808;DHT22;2930;42.678;23.312;2023-07-09T03:16:28;17.60;78.90
5808;DHT22;2930;42.678;23.312;2023-07-09T03:18:54;17.60;79.20
5808;DHT22;2930;42.678;23.312;2023-07-09T03:21:21;17.70;78.60
5808;DHT22;2930;42.678;23.312;2023-07-09T03:23:47;17.70;79.30
5808;DHT22;2930;42.678;23.312;2023-07-09T03:26:12;17.60;79.30
5808;DHT22;2930;42.678;23.312;2023-07-09T03:28:38;17.70;78.90
5808;DHT22;2930;42.678;23.312;2023-07-09T03:31:04;17.70;79.10
5808;DHT22;2930;42.678;23.312;2023-07-09T03:33:30;17.70;79.40
5808;DHT22;2930;42.678;23.312;2023-07-09T03:35:55;17.80;79.20
5808;DHT22;2930;42.678;23.312;2023-07-09T03:38:21;17.80;79.70
5808;DHT22;2930;42.678;23.312;2023-07-09T03:40:53;17.80;79.70
5808;DHT22;2930;42.678;23.312;2023-07-09T03:43:20;17.60;81.10
5808;DHT22;2930;42.678;23.312;2023-07-09T03:45:46;17.60;81.40
5808;DHT22;2930;42.678;23.312;2023-07-09T03:48:13;17.40;82.10
5808;DHT22;2930;42.678;23.312;2023-07-09T03:50:39;17.40;82.10
5808;DHT22;2930;42.678;23.312;2023-07-09T03:53:05;17.40;82.60
5808;DHT22;2930;42.678;23.312;2023-07-09T03:55:33;17.30;82.70
5808;DHT22;2930;42.678;23.312;2023-07-09T03:57:59;17.30;83.10
5808;DHT22;2930;42.678;23.312;2023-07-09T04:02:51;17.20;82.80
5808;DHT22;2930;42.678;23.312;2023-07-09T04:05:17;17.20;83.10
5808;DHT22;2930;42.678;23.312;2023-07-09T04:07:43;17.30;83.10
5808;DHT22;2930;42.678;23.312;2023-07-09T04:10:09;17.30;82.50
5808;DHT22;2930;42.678;23.312;2023-07-09T04:12:36;17.40;81.90
5808;DHT22;2930;42.678;23.312;2023-07-09T04:15:03;17.50;81.30
5808;DHT22;2930;42.678;23.312;2023-07-09T04:17:29;17.60;81.20
5808;DHT22;2930;42.678;23.312;2023-07-09T04:19:55;17.70;81.30
5808;DHT22;2930;42.678;23.312;2023-07-09T04:22:21;17.80;81.20
5808;DHT22;2930;42.678;23.312;2023-07-09T04:24:47;17.90;81.00
5808;DHT22;2930;42.678;23.312;2023-07-09T04:27:13;17.90;80.80
5808;DHT22;2930;42.678;23.312;2023-07-09T04:29:40;17.90;80.80
5808;DHT22;2930;42.678;23.312;2023-07-09T04:32:13;18.00;80.50
5808;DHT22;2930;42.678;23.312;2023-07-09T04:34:39;18.00;80.80
5808;DHT22;2930;42.678;23.312;2023-07-09T04:37:07;18.10;80.80
5808;DHT22;2930;42.678;23.312;2023-07-09T04:39:34;18.10;80.70
5808;DHT22;2930;42.678;23.312;2023-07-09T04:44:26;18.20;80.60
5808;DHT22;2930;42.678;23.312;2023-07-09T04:51:43;18.30;80.70
5808;DHT22;2930;42.678;23.312;2023-07-09T04:59:02;18.20;81.20
5808;DHT22;2930;42.678;23.312;2023-07-09T05:01:28;18.10;81.10
5808;DHT22;2930;42.678;23.312;2023-07-09T05:03:54;18.20;80.70
5808;DHT22;2930;42.678;23.312;2023-07-09T05:06:20;18.30;81.00
5808;DHT22;2930;42.678;23.312;2023-07-09T05:08:47;18.40;80.50
5808;DHT22;2930;42.678;23.312;2023-07-09T05:11:14;18.50;80.40
5808;DHT22;2930;42.678;23.312;2023-07-09T05:13:40;18.50;80.10
5808;DHT22;2930;42.678;23.312;2023-07-09T05:16:06;18.60;79.80
5808;DHT22;2930;42.678;23.312;2023-07-09T05:18:32;18.70;78.60
5808;DHT22;2930;42.678;23.312;2023-07-09T05:20:58;18.80;78.60
5808;DHT22;2930;42.678;23.312;2023-07-09T05:23:26;19.00;78.30
5808;DHT22;2930;42.678;23.312;2023-07-09T05:25:59;19.10;77.60
5808;DHT22;2930;42.678;23.312;2023-07-09T05:28:25;19.20;77.20
5808;DHT22;2930;42.678;23.312;2023-07-09T05:30:51;19.30;77.30
5808;DHT22;2930;42.678;23.312;2023-07-09T05:33:18;19.50;76.80
5808;DHT22;2930;42.678;23.312;2023-07-09T05:38:13;19.50;76.30
5808;DHT22;2930;42.678;23.312;2023-07-09T05:40:39;19.60;76.40
5808;DHT22;2930;42.678;23.312;2023-07-09T05:43:05;19.60;76.60
5808;DHT22;2930;42.678;23.312;2023-07-09T05:45:31;19.70;76.20
5808;DHT22;2930;42.678;23.312;2023-07-09T05:47:58;19.70;76.20
5808;DHT22;2930;42.678;23.312;2023-07-09T05:50:24;19.70;76.00
5808;DHT22;2930;42.678;23.312;2023-07-09T05:57:42;19.70;76.30
5808;DHT22;2930;42.678;23.312;2023-07-09T06:00:09;19.70;76.00
5808;DHT22;2930;42.678;23.312;2023-07-09T06:02:35;19.70;76.50
5808;DHT22;2930;42.678;23.312;2023-07-09T06:05:00;19.70;76.80
5808;DHT22;2930;42.678;23.312;2023-07-09T06:09:53;19.90;77.10
5808;DHT22;2930;42.678;23.312;2023-07-09T06:14:46;19.90;77.30
5808;DHT22;2930;42.678;23.312;2023-07-09T06:17:12;19.90;76.90
5808;DHT22;2930;42.678;23.312;2023-07-09T06:19:38;20.00;77.10
5808;DHT22;2930;42.678;23.312;2023-07-09T06:29:22;20.10;76.70
5808;DHT22;2930;42.678;23.312;2023-07-09T06:31:47;20.10;76.40
5808;DHT22;2930;42.678;23.312;2023-07-09T06:39:05;20.30;77.00
5808;DHT22;2930;42.678;23.312;2023-07-09T06:41:31;20.30;75.70
5808;DHT22;2930;42.678;23.312;2023-07-09T06:44:07;20.40;75.80
5808;DHT22;2930;42.678;23.312;2023-07-09T06:46:33;20.50;75.70
5808;DHT22;2930;42.678;23.312;2023-07-09T06:49:00;20.60;75.00
5808;DHT22;2930;42.678;23.312;2023-07-09T07:06:05;20.90;74.10
5808;DHT22;2930;42.678;23.312;2023-07-09T07:08:32;21.00;73.40
5808;DHT22;2930;42.678;23.312;2023-07-09T07:11:00;21.00;73.10
5808;DHT22;2930;42.678;23.312;2023-07-09T07:13:40;21.00;73.10
5808;DHT22;2930;42.678;23.312;2023-07-09T07:16:08;20.90;73.30
5808;DHT22;2930;42.678;23.312;2023-07-09T07:18:34;21.00;73.10
5808;DHT22;2930;42.678;23.312;2023-07-09T07:21:00;21.00;73.00
5808;DHT22;2930;42.678;23.312;2023-07-09T07:23:27;21.00;72.90
5808;DHT22;2930;42.678;23.312;2023-07-09T07:33:13;21.30;73.30
5808;DHT22;2930;42.678;23.312;2023-07-09T07:40:32;21.50;72.70
5808;DHT22;2930;42.678;23.312;2023-07-09T07:50:17;21.70;71.30
5808;DHT22;2930;42.678;23.312;2023-07-09T07:52:43;21.80;72.20
5808;DHT22;2930;42.678;23.312;2023-07-09T07:55:09;21.90;71.60
5808;DHT22;2930;42.678;23.312;2023-07-09T07:57:35;22.00;71.60
5808;DHT22;2930;42.678;23.312;2023-07-09T08:00:00;22.00;71.40
5808;DHT22;2930;42.678;23.312;2023-07-09T08:02:26;21.90;69.40
5808;DHT22;2930;42.678;23.312;2023-07-09T08:04:52;22.00;70.30
5808;DHT22;2930;42.678;23.312;2023-07-09T08:07:19;22.00;70.30
5808;DHT22;2930;42.678;23.312;2023-07-09T08:09:45;22.10;70.10
5808;DHT22;2930;42.678;23.312;2023-07-09T08:12:12;22.10;71.00
5808;DHT22;2930;42.678;23.312;2023-07-09T08:14:40;22.20;71.50
5808;DHT22;2930;42.678;23.312;2023-07-09T08:17:06;22.10;69.80
5808;DHT22;2930;42.678;23.312;2023-07-09T08:19:43;22.10;69.90
5808;DHT22;2930;42.678;23.312;2023-07-09T08:24:35;22.20;69.40
5808;DHT22;2930;42.678;23.312;2023-07-09T08:27:00;22.20;68.70
5808;DHT22;2930;42.678;23.312;2023-07-09T08:29:26;22.30;69.60
5808;DHT22;2930;42.678;23.312;2023-07-09T08:31:52;22.50;70.10
5808;DHT22;2930;42.678;23.312;2023-07-09T08:34:17;22.50;70.00
5808;DHT22;2930;42.678;23.312;2023-07-09T08:36:43;22.40;70.20
5808;DHT22;2930;42.678;23.312;2023-07-09T08:39:11;22.50;71.20
5808;DHT22;2930;42.678;23.312;2023-07-09T08:41:46;22.60;71.30
5808;DHT22;2930;42.678;23.312;2023-07-09T08:44:33;22.70;69.90
5808;DHT22;2930;42.678;23.312;2023-07-09T08:47:17;22.80;69.80
5808;DHT22;2930;42.678;23.312;2023-07-09T08:49:55;22.70;69.70
5808;DHT22;2930;42.678;23.312;2023-07-09T08:52:30;22.80;70.60
5808;DHT22;2930;42.678;23.312;2023-07-09T08:54:58;22.90;70.60
5808;DHT22;2930;42.678;23.312;2023-07-09T08:58:03;23.00;70.70
5808;DHT22;2930;42.678;23.312;2023-07-09T09:00:58;23.10;70.60
5808;DHT22;2930;42.678;23.312;2023-07-09T09:03:32;23.30;70.80
5808;DHT22;2930;42.678;23.312;2023-07-09T09:06:01;23.50;70.40
5808;DHT22;2930;42.678;23.312;2023-07-09T09:08:36;23.70;69.60
5808;DHT22;2930;42.678;23.312;2023-07-09T09:14:01;23.80;69.50
5808;DHT22;2930;42.678;23.312;2023-07-09T09:16:34;23.90;69.20
5808;DHT22;2930;42.678;23.312;2023-07-09T09:19:02;23.90;67.50
5808;DHT22;2930;42.678;23.312;2023-07-09T09:21:34;23.90;68.40
5808;DHT22;2930;42.678;23.312;2023-07-09T09:24:17;24.00;68.30
5808;DHT22;2930;42.678;23.312;2023-07-09T09:26:45;24.10;67.70
5808;DHT22;2930;42.678;23.312;2023-07-09T09:29:14;24.20;66.70
5808;DHT22;2930;42.678;23.312;2023-07-09T09:31:44;24.20;67.10
5808;DHT22;2930;42.678;23.312;2023-07-09T09:34:28;24.30;68.20
5808;DHT22;2930;42.678;23.312;2023-07-09T09:36:56;24.50;68.50
5808;DHT22;2930;42.678;23.312;2023-07-09T09:39:26;24.60;67.70
5808;DHT22;2930;42.678;23.312;2023-07-09T09:41:54;24.80;68.20
5808;DHT22;2930;42.678;23.312;2023-07-09T09:44:26;24.80;66.10
5808;DHT22;2930;42.678;23.312;2023-07-09T09:46:52;24.90;65.30
5808;DHT22;2930;42.678;23.312;2023-07-09T09:49:21;24.90;65.00
5808;DHT22;2930;42.678;23.312;2023-07-09T09:51:47;24.90;65.50
5808;DHT22;2930;42.678;23.312;2023-07-09T09:54:20;24.90;65.50
5808;DHT22;2930;42.678;23.312;2023-07-09T09:56:48;25.00;64.80
5808;DHT22;2930;42.678;23.312;2023-07-09T09:59:29;25.10;65.60
5808;DHT22;2930;42.678;23.312;2023-07-09T10:02:19;25.20;64.30
5808;DHT22;2930;42.678;23.312;2023-07-09T10:04:46;25.30;64.00
5808;DHT22;2930;42.678;23.312;2023-07-09T10:09:51;25.60;65.20
5808;DHT22;2930;42.678;23.312;2023-07-09T10:12:43;25.90;65.00
5808;DHT22;2930;42.678;23.312;2023-07-09T10:15:14;26.10;64.50
5808;DHT22;2930;42.678;23.312;2023-07-09T10:23:22;26.50;62.00
5808;DHT22;2930;42.678;23.312;2023-07-09T10:31:36;27.30;61.70
5808;DHT22;2930;42.678;23.312;2023-07-09T10:34:07;27.60;59.80
5808;DHT22;2930;42.678;23.312;2023-07-09T10:39:25;28.50;57.70
5808;DHT22;2930;42.678;23.312;2023-07-09T10:41:56;28.70;57.40
5808;DHT22;2930;42.678;23.312;2023-07-09T10:44:39;28.80;57.80
5808;DHT22;2930;42.678;23.312;2023-07-09T10:47:13;29.30;57.00
5808;DHT22;2930;42.678;23.312;2023-07-09T10:49:42;30.10;54.60
5808;DHT22;2930;42.678;23.312;2023-07-09T10:52:27;30.70;53.20
5808;DHT22;2930;42.678;23.312;2023-07-09T10:55:16;31.10;52.70
5808;DHT22;2930;42.678;23.312;2023-07-09T10:57:56;31.50;53.20
5808;DHT22;2930;42.678;23.312;2023-07-09T11:00:34;31.90;51.10
5808;DHT22;2930;42.678;23.312;2023-07-09T11:03:30;32.40;52.40
5808;DHT22;2930;42.678;23.312;2023-07-09T11:05:50;32.40;50.30
5808;DHT22;2930;42.678;23.312;2023-07-09T11:08:35;32.50;50.50
5808;DHT22;2930;42.678;23.312;2023-07-09T11:11:05;32.80;48.70
5808;DHT22;2930;42.678;23.312;2023-07-09T11:13:43;33.00;49.00
5808;DHT22;2930;42.678;23.312;2023-07-09T11:16:25;33.40;48.60
5808;DHT22;2930;42.678;23.312;2023-07-09T11:18:56;33.70;48.20
5808;DHT22;2930;42.678;23.312;2023-07-09T11:23:55;34.00;48.50
5808;DHT22;2930;42.678;23.312;2023-07-09T11:26:26;34.10;49.00
5808;DHT22;2930;42.678;23.312;2023-07-09T11:29:15;34.20;47.50
5808;DHT22;2930;42.678;23.312;2023-07-09T11:31:42;34.30;48.10
5808;DHT22;2930;42.678;23.312;2023-07-09T11:37:00;35.00;49.40
5808;DHT22;2930;42.678;23.312;2023-07-09T11:39:30;35.10;46.30
5808;DHT22;2930;42.678;23.312;2023-07-09T11:41:57;35.10;50.40
5808;DHT22;2930;42.678;23.312;2023-07-09T11:49:56;35.80;47.00
5808;DHT22;2930;42.678;23.312;2023-07-09T11:52:39;35.70;48.10
5808;DHT22;2930;42.678;23.312;2023-07-09T11:55:26;35.70;48.70
5808;DHT22;2930;42.678;23.312;2023-07-09T11:58:01;35.80;47.30
5808;DHT22;2930;42.678;23.312;2023-07-09T12:00:43;35.60;50.50
5808;DHT22;2930;42.678;23.312;2023-07-09T12:03:38;35.20;48.40
5808;DHT22;2930;42.678;23.312;2023-07-09T12:06:18;35.10;48.90
5808;DHT22;2930;42.678;23.312;2023-07-09T12:08:45;35.40;48.70
5808;DHT22;2930;42.678;23.312;2023-07-09T12:16:28;36.80;46.90
5808;DHT22;2930;42.678;23.312;2023-07-09T12:18:55;37.20;45.90
5808;DHT22;2930;42.678;23.312;2023-07-09T12:21:22;36.80;46.10
5808;DHT22;2930;42.678;23.312;2023-07-09T12:23:48;36.30;46.70
5808;DHT22;2930;42.678;23.312;2023-07-09T12:26:16;36.10;46.90
5808;DHT22;2930;42.678;23.312;2023-07-09T12:28:48;36.10;47.10
5808;DHT22;2930;42.678;23.312;2023-07-09T12:31:15;35.90;46.60
5808;DHT22;2930;42.678;23.312;2023-07-09T12:33:49;35.70;47.20
5808;DHT22;2930;42.678;23.312;2023-07-09T12:36:17;35.80;50.90
5808;DHT22;2930;42.678;23.312;2023-07-09T12:38:46;36.30;47.80
5808;DHT22;2930;42.678;23.312;2023-07-09T12:41:27;36.90;46.80
5808;DHT22;2930;42.678;23.312;2023-07-09T12:43:54;37.00;45.50
5808;DHT22;2930;42.678;23.312;2023-07-09T12:46:22;37.30;49.10
5808;DHT22;2930;42.678;23.312;2023-07-09T12:48:48;37.70;48.50
5808;DHT22;2930;42.678;23.312;2023-07-09T12:51:18;38.20;45.10
5808;DHT22;2930;42.678;23.312;2023-07-09T12:53:45;38.70;44.00
5808;DHT22;2930;42.678;23.312;2023-07-09T12:56:13;38.60;43.70
5808;DHT22;2930;42.678;23.312;2023-07-09T12:58:39;38.30;43.70
5808;DHT22;2930;42.678;23.312;2023-07-09T13:01:08;38.30;45.90
5808;DHT22;2930;42.678;23.312;2023-07-09T13:03:37;38.10;46.50
5808;DHT22;2930;42.678;23.312;2023-07-09T13:06:06;38.20;45.30
5808;DHT22;2930;42.678;23.312;2023-07-09T13:08:41;38.10;44.20
5808;DHT22;2930;42.678;23.312;2023-07-09T13:11:17;37.80;44.60
5808;DHT22;2930;42.678;23.312;2023-07-09T13:13:57;37.80;45.50
5808;DHT22;2930;42.678;23.312;2023-07-09T13:16:23;37.90;46.70
5808;DHT22;2930;42.678;23.312;2023-07-09T13:18:49;38.10;45.00
5808;DHT22;2930;42.678;23.312;2023-07-09T13:21:17;38.40;43.60
5808;DHT22;2930;42.678;23.312;2023-07-09T13:23:43;38.60;43.90
5808;DHT22;2930;42.678;23.312;2023-07-09T13:26:09;38.60;45.30
5808;DHT22;2930;42.678;23.312;2023-07-09T13:28:35;38.40;46.20
5808;DHT22;2930;42.678;23.312;2023-07-09T13:33:36;38.10;48.30
5808;DHT22;2930;42.678;23.312;2023-07-09T13:36:02;38.10;46.10
5808;DHT22;2930;42.678;23.312;2023-07-09T13:38:28;38.10;45.50
5808;DHT22;2930;42.678;23.312;2023-07-09T13:40:59;38.40;48.80
5808;DHT22;2930;42.678;23.312;2023-07-09T13:43:32;38.70;44.60
5808;DHT22;2930;42.678;23.312;2023-07-09T13:46:00;38.70;47.20
5808;DHT22;2930;42.678;23.312;2023-07-09T13:48:27;38.90;45.50
5808;DHT22;2930;42.678;23.312;2023-07-09T13:50:55;38.80;44.60
5808;DHT22;2930;42.678;23.312;2023-07-09T13:53:27;38.70;44.20
5808;DHT22;2930;42.678;23.312;2023-07-09T13:55:54;38.70;44.60
5808;DHT22;2930;42.678;23.312;2023-07-09T13:58:22;38.50;45.00
5808;DHT22;2930;42.678;23.312;2023-07-09T14:00:50;38.50;46.00
5808;DHT22;2930;42.678;23.312;2023-07-09T14:03:25;38.40;46.30
5808;DHT22;2930;42.678;23.312;2023-07-09T14:05:52;38.30;46.30
5808;DHT22;2930;42.678;23.312;2023-07-09T14:08:18;37.10;45.80
5808;DHT22;2930;42.678;23.312;2023-07-09T14:10:46;37.00;46.50
5808;DHT22;2930;42.678;23.312;2023-07-09T14:13:16;37.10;46.70
5808;DHT22;2930;42.678;23.312;2023-07-09T14:15:43;36.80;46.10
5808;DHT22;2930;42.678;23.312;2023-07-09T14:18:12;36.80;46.40
5808;DHT22;2930;42.678;23.312;2023-07-09T14:20:39;36.80;47.00
5808;DHT22;2930;42.678;23.312;2023-07-09T14:23:04;36.80;47.80
5808;DHT22;2930;42.678;23.312;2023-07-09T14:25:30;37.00;46.30
5808;DHT22;2930;42.678;23.312;2023-07-09T14:30:24;36.60;46.50
5808;DHT22;2930;42.678;23.312;2023-07-09T14:32:51;36.60;46.70
5808;DHT22;2930;42.678;23.312;2023-07-09T14:35:22;36.40;47.80
5808;DHT22;2930;42.678;23.312;2023-07-09T14:37:51;36.50;49.20
5808;DHT22;2930;42.678;23.312;2023-07-09T14:40:19;36.70;46.10
5808;DHT22;2930;42.678;23.312;2023-07-09T14:42:46;36.60;46.20
5808;DHT22;2930;42.678;23.312;2023-07-09T14:45:23;36.10;45.30
5808;DHT22;2930;42.678;23.312;2023-07-09T14:47:50;35.20;46.30
5808;DHT22;2930;42.678;23.312;2023-07-09T14:50:17;34.90;46.60
5808;DHT22;2930;42.678;23.312;2023-07-09T14:52:44;35.00;47.60
5808;DHT22;2930;42.678;23.312;2023-07-09T14:57:40;35.00;46.80
5808;DHT22;2930;42.678;23.312;2023-07-09T15:00:08;35.00;46.80
5808;DHT22;2930;42.678;23.312;2023-07-09T15:02:39;35.20;46.40
5808;DHT22;2930;42.678;23.312;2023-07-09T15:05:13;35.30;46.40
5808;DHT22;2930;42.678;23.312;2023-07-09T15:07:39;35.30;46.20
5808;DHT22;2930;42.678;23.312;2023-07-09T15:10:05;35.40;47.50
5808;DHT22;2930;42.678;23.312;2023-07-09T15:12:34;35.20;46.20
5808;DHT22;2930;42.678;23.312;2023-07-09T15:17:41;34.70;47.50
5808;DHT22;2930;42.678;23.312;2023-07-09T15:20:13;34.30;47.30
5808;DHT22;2930;42.678;23.312;2023-07-09T15:22:39;34.00;48.00
5808;DHT22;2930;42.678;23.312;2023-07-09T15:25:15;33.80;47.90
5808;DHT22;2930;42.678;23.312;2023-07-09T15:27:42;33.70;48.20
5808;DHT22;2930;42.678;23.312;2023-07-09T15:30:28;33.80;50.10
5808;DHT22;2930;42.678;23.312;2023-07-09T15:33:00;33.90;48.90
5808;DHT22;2930;42.678;23.312;2023-07-09T15:35:31;33.90;48.90
5808;DHT22;2930;42.678;23.312;2023-07-09T15:37:57;34.00;50.20
5808;DHT22;2930;42.678;23.312;2023-07-09T15:40:25;34.00;49.30
5808;DHT22;2930;42.678;23.312;2023-07-09T15:42:56;34.00;49.00
5808;DHT22;2930;42.678;23.312;2023-07-09T15:45:23;34.00;50.20
5808;DHT22;2930;42.678;23.312;2023-07-09T15:47:50;33.80;49.90
5808;DHT22;2930;42.678;23.312;2023-07-09T15:50:20;33.70;49.50
5808;DHT22;2930;42.678;23.312;2023-07-09T15:52:47;33.30;50.20
5808;DHT22;2930;42.678;23.312;2023-07-09T15:55:21;33.20;51.10
5808;DHT22;2930;42.678;23.312;2023-07-09T15:57:49;33.00;51.30
5808;DHT22;2930;42.678;23.312;2023-07-09T16:00:24;32.90;52.30
5808;DHT22;2930;42.678;23.312;2023-07-09T16:02:51;32.90;53.50
5808;DHT22;2930;42.678;23.312;2023-07-09T16:05:24;32.70;52.10
5808;DHT22;2930;42.678;23.312;2023-07-09T16:07:51;32.60;53.00
5808;DHT22;2930;42.678;23.312;2023-07-09T16:10:17;32.40;52.80
5808;DHT22;2930;42.678;23.312;2023-07-09T16:12:45;31.90;53.50
5808;DHT22;2930;42.678;23.312;2023-07-09T16:15:13;31.40;54.40
5808;DHT22;2930;42.678;23.312;2023-07-09T16:17:41;31.30;54.80
5808;DHT22;2930;42.678;23.312;2023-07-09T16:20:11;31.10;55.40
5808;DHT22;2930;42.678;23.312;2023-07-09T16:22:38;30.80;55.70
5808;DHT22;2930;42.678;23.312;2023-07-09T16:25:33;30.40;57.20
5808;DHT22;2930;42.678;23.312;2023-07-09T16:27:59;29.90;57.10
5808;DHT22;2930;42.678;23.312;2023-07-09T16:30:26;29.40;57.80
5808;DHT22;2930;42.678;23.312;2023-07-09T16:32:55;28.90;58.60
5808;DHT22;2930;42.678;23.312;2023-07-09T16:35:22;28.60;59.70
5808;DHT22;2930;42.678;23.312;2023-07-09T16:37:49;28.50;59.80
5808;DHT22;2930;42.678;23.312;2023-07-09T16:40:18;28.20;59.90
5808;DHT22;2930;42.678;23.312;2023-07-09T16:42:46;28.10;60.30
5808;DHT22;2930;42.678;23.312;2023-07-09T16:45:17;28.10;60.70
5808;DHT22;2930;42.678;23.312;2023-07-09T16:47:43;27.90;61.00
5808;DHT22;2930;42.678;23.312;2023-07-09T16:50:15;27.70;61.10
5808;DHT22;2930;42.678;23.312;2023-07-09T16:52:42;27.60;61.40
5808;DHT22;2930;42.678;23.312;2023-07-09T16:55:13;27.10;62.30
5808;DHT22;2930;42.678;23.312;2023-07-09T16:57:38;26.80;63.00
5808;DHT22;2930;42.678;23.312;2023-07-09T17:02:52;26.60;63.40
5808;DHT22;2930;42.678;23.312;2023-07-09T17:05:18;26.40;63.50
5808;DHT22;2930;42.678;23.312;2023-07-09T17:07:43;26.20;64.10
5808;DHT22;2930;42.678;23.312;2023-07-09T17:10:11;25.90;64.40
5808;DHT22;2930;42.678;23.312;2023-07-09T17:15:18;25.80;64.90
5808;DHT22;2930;42.678;23.312;2023-07-09T17:20:11;25.80;65.00
5808;DHT22;2930;42.678;23.312;2023-07-09T17:22:37;25.80;65.00
5808;DHT22;2930;42.678;23.312;2023-07-09T17:25:22;25.70;65.10
5808;DHT22;2930;42.678;23.312;2023-07-09T17:30:15;25.40;65.70
5808;DHT22;2930;42.678;23.312;2023-07-09T17:32:41;25.40;65.90
5808;DHT22;2930;42.678;23.312;2023-07-09T17:35:08;25.30;65.90
5808;DHT22;2930;42.678;23.312;2023-07-09T17:37:34;25.40;66.00
5808;DHT22;2930;42.678;23.312;2023-07-09T17:40:00;25.30;66.00
5808;DHT22;2930;42.678;23.312;2023-07-09T17:42:25;25.30;66.10
5808;DHT22;2930;42.678;23.312;2023-07-09T17:47:18;25.30;66.40
5808;DHT22;2930;42.678;23.312;2023-07-09T17:49:46;25.30;66.50
5808;DHT22;2930;42.678;23.312;2023-07-09T17:52:18;25.30;66.50
5808;DHT22;2930;42.678;23.312;2023-07-09T17:54:45;25.20;67.00
5808;DHT22;2930;42.678;23.312;2023-07-09T17:57:26;25.10;67.10
5808;DHT22;2930;42.678;23.312;2023-07-09T17:59:52;24.90;67.60
5808;DHT22;2930;42.678;23.312;2023-07-09T18:02:28;24.80;67.80
5808;DHT22;2930;42.678;23.312;2023-07-09T18:04:56;24.80;68.10
5808;DHT22;2930;42.678;23.312;2023-07-09T18:09:47;24.50;68.50
5808;DHT22;2930;42.678;23.312;2023-07-09T18:12:16;24.40;68.70
5808;DHT22;2930;42.678;23.312;2023-07-09T18:14:47;24.30;69.00
5808;DHT22;2930;42.678;23.312;2023-07-09T18:17:15;24.30;69.30
5808;DHT22;2930;42.678;23.312;2023-07-09T18:22:19;24.20;68.90
5808;DHT22;2930;42.678;23.312;2023-07-09T18:24:45;24.10;69.80
5808;DHT22;2930;42.678;23.312;2023-07-09T18:27:22;24.00;70.10
5808;DHT22;2930;42.678;23.312;2023-07-09T18:29:51;23.90;70.30